createdAt,value
2022-09-20T00:01:23.219Z,10.47
2022-09-20T00:04:24.921Z,10.47
2022-09-20T00:07:28.623Z,10.53
2022-09-20T00:10:31.622Z,10.60
2022-09-20T00:13:36.126Z,10.54
2022-09-20T00:16:40.389Z,10.47
2022-09-20T00:19:42.289Z,10.58
2022-09-20T00:22:43.949Z,10.68
2022-09-20T00:25:46.047Z,10.66
2022-09-20T00:28:49.056Z,10.66
2022-09-20T00:31:50.781Z,10.58
2022-09-20T00:35:07.623Z,10.57
2022-09-20T00:38:09.278Z,10.60
2022-09-20T00:41:11.147Z,10.65
2022-09-20T00:44:43.064Z,10.67
2022-09-20T00:47:49.902Z,10.59
2022-09-20T00:50:57.153Z,10.65
2022-09-20T00:54:01.821Z,10.64
2022-09-20T00:57:04.290Z,10.61
2022-09-20T01:00:12.219Z,10.61
2022-09-20T01:03:15.743Z,10.54
2022-09-20T01:06:17.936Z,10.54
2022-09-20T01:09:19.560Z,10.39
2022-09-20T01:12:25.891Z,10.42
2022-09-20T01:15:31.064Z,10.24
2022-09-20T01:18:34.757Z,10.18
2022-09-20T01:21:36.621Z,10.27
2022-09-20T01:24:47.866Z,10.30
2022-09-20T01:27:52.510Z,10.34
2022-09-20T01:31:05.151Z,10.18
2022-09-20T01:34:11.147Z,10.21
2022-09-20T01:37:21.941Z,10.09
2022-09-20T01:40:33.968Z,10.14
2022-09-20T01:43:45.690Z,10.02
2022-09-20T01:46:53.583Z,9.96
2022-09-20T01:50:05.224Z,9.93
2022-09-20T01:53:49.070Z,9.92
2022-09-20T01:57:18.837Z,10.03
2022-09-20T02:00:26.243Z,10.08
2022-09-20T02:03:54.252Z,10.09
2022-09-20T02:07:21.359Z,10.09
2022-09-20T02:10:40.556Z,9.97
2022-09-20T02:14:05.405Z,9.95
2022-09-20T02:17:13.825Z,9.82
2022-09-20T02:20:30.638Z,9.74
2022-09-20T02:23:40.589Z,9.83
2022-09-20T02:26:57.191Z,9.79
2022-09-20T02:30:13.327Z,9.73
2022-09-20T02:33:46.444Z,9.67
2022-09-20T02:37:06.405Z,9.66
2022-09-20T02:40:20.800Z,9.48
2022-09-20T02:43:30.464Z,9.56
2022-09-20T02:46:41.156Z,9.45
2022-09-20T02:49:53.929Z,9.27
2022-09-20T02:53:13.024Z,9.36
2022-09-20T02:56:25.227Z,9.29
2022-09-20T02:59:35.449Z,9.01
2022-09-20T03:02:51.696Z,9.20
2022-09-20T03:06:04.908Z,9.01
2022-09-20T03:09:13.904Z,8.94
2022-09-20T03:12:26.301Z,8.98
2022-09-20T03:15:39.144Z,9.08
2022-09-20T03:18:50.793Z,9.00
2022-09-20T03:22:05.679Z,8.90
2022-09-20T03:25:34.440Z,8.89
2022-09-20T03:28:53.399Z,8.85
2022-09-20T03:32:13.465Z,8.66
2022-09-20T03:35:29.451Z,8.68
2022-09-20T03:38:48.234Z,8.66
2022-09-20T03:42:16.473Z,8.64
2022-09-20T03:45:39.023Z,8.58
2022-09-20T03:49:19.435Z,8.59
2022-09-20T03:52:40.925Z,8.53
2022-09-20T03:56:22.555Z,8.51
2022-09-20T03:59:39.720Z,8.48
2022-09-20T04:03:05.161Z,8.47
2022-09-20T04:06:32.324Z,8.34
2022-09-20T04:09:52.674Z,8.45
2022-09-20T04:13:12.402Z,8.41
2022-09-20T04:16:25.663Z,8.35
2022-09-20T04:19:35.166Z,8.16
2022-09-20T04:22:36.944Z,8.27
2022-09-20T04:25:44.134Z,8.16
2022-09-20T04:28:54.026Z,8.11
2022-09-20T04:32:01.466Z,8.18
2022-09-20T04:35:32.543Z,8.16
2022-09-20T04:38:35.730Z,8.23
2022-09-20T04:42:11.375Z,8.20
2022-09-20T04:45:28.840Z,8.14
2022-09-20T04:49:10.182Z,8.23
2022-09-20T04:52:55.140Z,8.26
2022-09-20T04:56:03.207Z,8.25
2022-09-20T04:59:10.128Z,8.30
2022-09-20T05:02:40.012Z,8.22
2022-09-20T05:05:53.626Z,8.19
2022-09-20T05:09:18.644Z,8.15
2022-09-20T05:12:46.406Z,8.02
2022-09-20T05:15:59.755Z,8.11
2022-09-20T05:19:26.441Z,8.24
2022-09-20T05:23:13.140Z,8.10
2022-09-20T05:26:25.635Z,8.19
2022-09-20T05:29:33.869Z,8.19
2022-09-20T05:32:45.219Z,8.24
2022-09-20T05:35:58.608Z,8.25
2022-09-20T05:39:09.763Z,8.25
2022-09-20T05:42:19.561Z,8.21
2022-09-20T05:45:40.796Z,8.24
2022-09-20T05:48:53.720Z,8.41
2022-09-20T05:52:14.027Z,8.27
2022-09-20T05:55:30.626Z,8.38
2022-09-20T05:58:43.896Z,8.36
2022-09-20T06:01:58.975Z,8.47
2022-09-20T06:05:08.659Z,8.53
2022-09-20T06:08:29.711Z,8.67
2022-09-20T06:11:54.957Z,8.88
2022-09-20T06:15:03.936Z,9.09
2022-09-20T06:18:20.416Z,9.17
2022-09-20T06:21:31.214Z,9.29
2022-09-20T06:24:39.239Z,9.36
2022-09-20T06:27:45.045Z,9.33
2022-09-20T06:30:48.836Z,9.50
2022-09-20T06:33:58.088Z,9.72
2022-09-20T06:37:28.966Z,9.79
2022-09-20T06:40:59.194Z,9.76
2022-09-20T06:44:02.069Z,9.72
2022-09-20T06:47:05.767Z,9.73
2022-09-20T06:50:15.074Z,9.86
2022-09-20T06:53:18.272Z,9.88
2022-09-20T06:56:23.686Z,9.90
2022-09-20T06:59:25.347Z,9.87
2022-09-20T07:02:27.220Z,10.01
2022-09-20T07:05:29.173Z,9.93
2022-09-20T07:08:30.754Z,10.02
2022-09-20T07:11:34.889Z,10.05
2022-09-20T07:14:37.002Z,10.04
2022-09-20T07:17:38.608Z,10.14
2022-09-20T07:20:41.679Z,10.41
2022-09-20T07:23:45.673Z,10.45
2022-09-20T07:26:57.192Z,10.76
2022-09-20T07:29:58.787Z,10.90
2022-09-20T07:33:00.599Z,11.05
2022-09-20T07:36:02.698Z,11.10
2022-09-20T07:39:04.420Z,11.36
2022-09-20T07:42:08.066Z,11.25
2022-09-20T07:45:13.171Z,11.22
2022-09-20T07:48:15.012Z,11.53
2022-09-20T07:51:16.667Z,11.48
2022-09-20T07:54:18.810Z,11.57
2022-09-20T07:57:21.807Z,11.45
2022-09-20T08:00:23.429Z,11.51
2022-09-20T08:03:26.317Z,11.61
2022-09-20T08:06:27.952Z,11.80
2022-09-20T08:09:29.561Z,11.95
2022-09-20T08:16:01.750Z,11.97
2022-09-20T08:19:03.373Z,12.21
2022-09-20T08:22:05.019Z,12.07
2022-09-20T08:25:07.526Z,12.19
2022-09-20T08:28:10.525Z,12.40
2022-09-20T08:31:14.575Z,12.58
2022-09-20T08:34:17.625Z,12.61
2022-09-20T08:37:19.271Z,12.66
2022-09-20T08:40:23.816Z,12.66
2022-09-20T08:43:30.422Z,12.88
2022-09-20T08:46:35.684Z,13.18
2022-09-20T08:49:40.512Z,13.22
2022-09-20T08:52:44.915Z,13.04
2022-09-20T08:55:47.121Z,13.31
2022-09-20T08:58:50.860Z,13.46
2022-09-20T09:01:53.561Z,13.60
2022-09-20T09:04:56.042Z,13.67
2022-09-20T09:08:00.595Z,13.75
2022-09-20T09:11:09.534Z,13.71
2022-09-20T09:14:41.408Z,13.62
2022-09-20T09:17:43.106Z,13.63
2022-09-20T09:20:46.642Z,13.56
2022-09-20T09:23:53.247Z,13.59
2022-09-20T09:27:08.187Z,13.81
2022-09-20T09:30:20.935Z,13.91
2022-09-20T09:33:26.512Z,13.97
2022-09-20T09:36:28.339Z,13.64
2022-09-20T09:39:32.506Z,13.60
2022-09-20T09:42:34.449Z,13.77
2022-09-20T09:45:39.283Z,13.78
2022-09-20T09:48:41.242Z,13.92
2022-09-20T09:52:01.745Z,13.66
2022-09-20T09:55:05.802Z,13.79
2022-09-20T09:58:21.872Z,13.63
2022-09-20T10:01:39.680Z,13.84
2022-09-20T10:04:48.475Z,13.85
2022-09-20T10:07:59.477Z,13.90
2022-09-20T10:11:13.069Z,13.96
2022-09-20T10:24:03.551Z,14.07
2022-09-20T10:27:18.635Z,14.34
2022-09-20T10:30:23.828Z,14.56
2022-09-20T10:33:36.692Z,14.72
2022-09-20T10:36:45.968Z,14.73
2022-09-20T10:39:57.185Z,14.41
2022-09-20T10:43:15.289Z,14.30
2022-09-20T10:46:32.455Z,14.55
2022-09-20T10:49:40.442Z,14.45
2022-09-20T10:52:58.680Z,14.45
2022-09-20T10:56:15.990Z,14.47
2022-09-20T10:59:34.825Z,14.24
2022-09-20T11:02:49.464Z,14.42
2022-09-20T11:06:11.317Z,13.93
2022-09-20T11:09:17.482Z,13.76
2022-09-20T11:12:27.042Z,13.76
2022-09-20T11:15:35.676Z,13.56
2022-09-20T11:18:42.887Z,13.42
2022-09-20T11:21:52.153Z,13.54
2022-09-20T11:24:58.816Z,13.59
2022-09-20T11:28:11.331Z,13.29
2022-09-20T11:31:22.217Z,13.04
2022-09-20T11:34:29.985Z,13.24
2022-09-20T11:37:37.245Z,13.29
2022-09-20T11:40:45.624Z,13.35
2022-09-20T11:43:52.873Z,13.31
2022-09-20T11:46:58.347Z,13.33
2022-09-20T11:50:21.600Z,13.28
2022-09-20T11:53:39.963Z,13.25
2022-09-20T11:56:50.337Z,13.36
2022-09-20T11:59:56.574Z,13.60
2022-09-20T12:02:59.460Z,13.78
2022-09-20T12:06:03.004Z,13.90
2022-09-20T12:09:08.045Z,14.06
2022-09-20T12:12:37.796Z,14.10
2022-09-20T12:15:41.177Z,14.14
2022-09-20T12:19:03.121Z,14.22
2022-09-20T12:22:28.123Z,14.10
2022-09-20T12:25:39.258Z,14.26
2022-09-20T12:28:44.602Z,14.42
2022-09-20T12:31:50.216Z,14.97
2022-09-20T12:34:52.489Z,15.26
2022-09-20T12:37:54.162Z,15.16
2022-09-20T12:41:14.946Z,14.97
2022-09-20T12:44:32.848Z,15.21
2022-09-20T12:47:37.476Z,15.08
2022-09-20T12:50:57.672Z,14.62
2022-09-20T12:54:02.416Z,14.97
2022-09-20T12:57:18.033Z,14.65
2022-09-20T13:00:32.011Z,14.74
2022-09-20T13:03:37.556Z,14.66
2022-09-20T13:06:43.299Z,14.71
2022-09-20T13:09:45.117Z,14.61
2022-09-20T13:12:52.595Z,14.75
2022-09-20T13:15:58.113Z,15.25
2022-09-20T13:19:05.459Z,15.39
2022-09-20T13:22:13.102Z,15.22
2022-09-20T13:25:16.977Z,14.90
2022-09-20T13:28:29.789Z,15.15
2022-09-20T13:31:35.720Z,15.27
2022-09-20T13:34:42.200Z,15.29
2022-09-20T13:37:52.807Z,15.28
2022-09-20T13:41:03.324Z,14.72
2022-09-20T13:44:05.255Z,14.79
2022-09-20T13:47:25.032Z,14.77
2022-09-20T13:50:32.840Z,14.52
2022-09-20T13:53:42.871Z,14.64
2022-09-20T13:56:44.760Z,14.68
2022-09-20T13:59:46.727Z,15.21
2022-09-20T14:02:49.408Z,15.73
2022-09-20T14:05:55.841Z,15.40
2022-09-20T14:09:01.353Z,15.63
2022-09-20T14:12:04.636Z,15.82
2022-09-20T14:15:09.906Z,16.11
2022-09-20T14:18:14.817Z,16.00
2022-09-20T14:21:23.864Z,16.09
2022-09-20T14:24:32.256Z,15.93
2022-09-20T14:27:36.253Z,15.57
2022-09-20T14:30:38.002Z,15.31
2022-09-20T14:33:44.826Z,15.22
2022-09-20T14:36:49.395Z,15.17
2022-09-20T14:39:52.906Z,15.22
2022-09-20T14:42:57.529Z,15.19
2022-09-20T14:46:01.620Z,15.68
2022-09-20T14:49:20.683Z,15.64
2022-09-20T14:52:34.637Z,15.68
2022-09-20T14:55:37.913Z,15.78
2022-09-20T14:59:03.573Z,15.91
2022-09-20T15:02:13.756Z,15.59
2022-09-20T15:05:21.821Z,15.32
2022-09-20T15:08:25.530Z,15.52
2022-09-20T15:11:29.909Z,15.41
2022-09-20T15:14:37.151Z,15.59
2022-09-20T15:17:39.637Z,15.72
2022-09-20T15:20:43.394Z,15.73
2022-09-20T15:23:46.451Z,15.76
2022-09-20T15:26:48.708Z,15.45
2022-09-20T15:29:50.524Z,15.42
2022-09-20T15:32:52.810Z,15.25
2022-09-20T15:35:54.479Z,15.20
2022-09-20T15:38:57.708Z,14.94
2022-09-20T15:41:59.387Z,14.87
2022-09-20T15:45:01.050Z,14.80
2022-09-20T15:48:03.017Z,14.71
2022-09-20T15:51:06.739Z,14.81
2022-09-20T15:54:13.443Z,14.73
2022-09-20T15:57:15.516Z,14.69
2022-09-20T16:00:20.063Z,14.62
2022-09-20T16:03:28.828Z,14.58
2022-09-20T16:06:32.390Z,14.59
2022-09-20T16:09:37.763Z,14.58
2022-09-20T16:12:39.458Z,14.43
2022-09-20T16:15:42.269Z,14.50
2022-09-20T16:19:02.434Z,14.52
2022-09-20T16:22:04.768Z,14.60
2022-09-20T16:25:08.641Z,14.50
2022-09-20T16:28:10.278Z,14.34
2022-09-20T16:31:34.782Z,14.33
2022-09-20T16:34:36.976Z,14.27
2022-09-20T16:37:39.343Z,14.27
2022-09-20T16:40:42.319Z,14.30
2022-09-20T16:43:44.039Z,14.27
2022-09-20T16:46:46.044Z,14.26
2022-09-20T16:49:48.377Z,14.19
2022-09-20T16:52:50.022Z,14.13
2022-09-20T16:55:55.740Z,14.16
2022-09-20T16:58:57.720Z,14.00
2022-09-20T17:01:59.493Z,13.87
2022-09-20T17:05:01.245Z,13.80
2022-09-20T17:08:03.371Z,13.75
2022-09-20T17:11:08.321Z,13.63
2022-09-20T17:14:10.031Z,13.30
2022-09-20T17:17:12.720Z,12.98
2022-09-20T17:20:14.611Z,12.83
2022-09-20T17:23:16.718Z,12.66
2022-09-20T17:26:23.036Z,12.53
2022-09-20T17:29:24.758Z,12.46
2022-09-20T17:32:26.382Z,12.32
2022-09-20T17:35:29.391Z,12.28
2022-09-20T17:38:33.589Z,12.26
2022-09-20T17:41:37.372Z,12.07
2022-09-20T17:44:39.092Z,11.84
2022-09-20T17:47:41.961Z,11.71
2022-09-20T17:50:43.953Z,11.59
2022-09-20T17:53:46.571Z,11.44
2022-09-20T17:56:51.599Z,11.57
2022-09-20T17:59:53.196Z,11.53
2022-09-20T18:02:55.377Z,11.34
2022-09-20T18:05:57.035Z,11.35
2022-09-20T18:09:03.045Z,11.09
2022-09-20T18:12:06.648Z,11.19
2022-09-20T18:15:08.904Z,11.01
2022-09-20T18:18:10.838Z,11.02
2022-09-20T18:21:14.660Z,10.90
2022-09-20T18:24:16.301Z,10.70
2022-09-20T18:27:19.351Z,10.56
2022-09-20T18:30:21.534Z,10.54
2022-09-20T18:33:23.157Z,10.51
2022-09-20T18:36:25.584Z,10.56
2022-09-20T18:39:29.838Z,10.60
2022-09-20T18:42:33.562Z,10.46
2022-09-20T18:45:35.211Z,10.46
2022-09-20T18:48:39.674Z,10.40
2022-09-20T18:51:42.158Z,10.40
2022-09-20T18:54:43.987Z,10.45
2022-09-20T18:57:47.578Z,10.31
2022-09-20T19:01:02.349Z,10.26
2022-09-20T19:04:20.598Z,10.25
2022-09-20T19:07:36.133Z,10.29
2022-09-20T19:10:43.678Z,10.26
2022-09-20T19:13:54.901Z,10.27
2022-09-20T19:17:01.396Z,10.39
2022-09-20T19:20:09.674Z,10.50
2022-09-20T19:23:43.636Z,10.45
2022-09-20T19:26:45.700Z,10.49
2022-09-20T19:29:49.465Z,10.45
2022-09-20T19:32:53.990Z,10.50
2022-09-20T19:35:56.352Z,10.61
2022-09-20T19:39:07.925Z,10.55
2022-09-20T19:42:24.114Z,10.58
2022-09-20T19:45:34.496Z,10.66
2022-09-20T19:48:39.209Z,10.72
2022-09-20T19:51:42.925Z,10.85
2022-09-20T19:54:48.094Z,10.78
2022-09-20T19:57:50.964Z,10.74
2022-09-20T20:00:54.689Z,10.75
2022-09-20T20:03:56.812Z,10.87
2022-09-20T20:07:05.916Z,10.79
2022-09-20T20:10:22.865Z,10.95
2022-09-20T20:13:51.705Z,10.92
2022-09-20T20:17:03.091Z,10.85
2022-09-20T20:20:17.640Z,10.82
2022-09-20T20:23:48.755Z,10.77
2022-09-20T20:26:50.442Z,10.99
2022-09-20T20:29:52.263Z,11.01
2022-09-20T20:32:58.064Z,10.92
2022-09-20T20:36:01.570Z,10.99
2022-09-20T20:39:03.426Z,10.80
2022-09-20T20:42:06.297Z,10.84
2022-09-20T20:45:11.079Z,10.84
2022-09-20T20:48:13.910Z,10.73
2022-09-20T20:51:17.710Z,10.79
2022-09-20T20:54:20.796Z,10.62
2022-09-20T20:57:22.396Z,10.66
2022-09-20T21:00:24.649Z,10.65
2022-09-20T21:03:27.697Z,10.69
2022-09-20T21:06:31.836Z,10.66
2022-09-20T21:09:33.565Z,10.61
2022-09-20T21:12:35.168Z,10.51
2022-09-20T21:15:36.827Z,10.37
2022-09-20T21:18:41.593Z,10.22
2022-09-20T21:21:45.389Z,10.23
2022-09-20T21:24:47.034Z,10.23
2022-09-20T21:27:49.382Z,10.16
2022-09-20T21:30:56.349Z,9.89
2022-09-20T21:33:59.979Z,9.75
2022-09-20T21:37:01.621Z,9.87
2022-09-20T21:40:03.698Z,9.92
2022-09-20T21:43:05.465Z,10.01
2022-09-20T21:46:10.435Z,10.09
2022-09-20T21:49:14.161Z,10.17
2022-09-20T21:52:15.797Z,10.07
2022-09-20T21:55:17.468Z,10.02
2022-09-20T21:58:19.248Z,10.08
2022-09-20T22:01:23.123Z,10.11
2022-09-20T22:04:29.074Z,10.03
2022-09-20T22:07:30.707Z,10.08
2022-09-20T22:10:32.658Z,10.05
2022-09-20T22:13:34.910Z,10.05
2022-09-20T22:16:37.983Z,10.20
2022-09-20T22:19:40.985Z,10.23
2022-09-20T22:22:42.593Z,10.15
2022-09-20T22:25:44.187Z,10.23
2022-09-20T22:28:49.770Z,10.07
2022-09-20T22:31:52.132Z,10.20
2022-09-20T22:34:56.560Z,10.29
2022-09-20T22:37:58.292Z,10.04
2022-09-20T22:41:00.090Z,10.14
2022-09-20T22:44:02.254Z,9.94
2022-09-20T22:47:04.085Z,10.13
2022-09-20T22:50:07.925Z,10.12
2022-09-20T22:53:09.558Z,10.09
2022-09-20T22:56:14.234Z,10.01
2022-09-20T22:59:15.903Z,9.86
2022-09-20T23:02:17.616Z,9.65
2022-09-20T23:05:20.620Z,9.52
2022-09-20T23:08:24.330Z,9.60
2022-09-20T23:11:26.804Z,9.72
2022-09-20T23:14:28.480Z,9.61
2022-09-20T23:17:30.142Z,9.55
2022-09-20T23:20:33.383Z,9.55
2022-09-20T23:23:35.819Z,9.50
2022-09-20T23:26:39.084Z,9.51
2022-09-20T23:29:40.703Z,9.46
2022-09-20T23:32:42.762Z,9.40
2022-09-20T23:35:46.471Z,9.24
2022-09-20T23:38:48.609Z,9.37
2022-09-20T23:41:51.349Z,9.21
2022-09-20T23:44:53.185Z,9.06
2022-09-20T23:47:54.865Z,9.03
2022-09-20T23:50:58.467Z,9.21
2022-09-20T23:54:00.195Z,9.18
2022-09-20T23:57:01.821Z,9.07
